createdAt,value
2023-08-07T00:00:27.851Z,14.01
2023-08-07T00:02:55.698Z,13.99
2023-08-07T00:05:23.788Z,14.05
2023-08-07T00:07:51.563Z,14.08
2023-08-07T00:10:19.859Z,14.13
2023-08-07T00:12:48.100Z,14.05
2023-08-07T00:15:15.929Z,14.11
2023-08-07T00:17:43.916Z,14.05
2023-08-07T00:20:12.136Z,14.11
2023-08-07T00:22:40.000Z,14.05
2023-08-07T00:25:09.010Z,14.02
2023-08-07T00:27:36.897Z,14.06
2023-08-07T00:30:05.230Z,14.05
2023-08-07T00:32:33.217Z,14.08
2023-08-07T00:35:01.707Z,14.07
2023-08-07T00:37:29.909Z,14.04
2023-08-07T00:39:57.852Z,14.12
2023-08-07T00:42:25.662Z,14.00
2023-08-07T00:44:54.456Z,14.02
2023-08-07T00:47:22.478Z,13.91
2023-08-07T00:49:51.621Z,13.98
2023-08-07T00:52:20.741Z,13.97
2023-08-07T00:54:48.737Z,13.96
2023-08-07T00:57:18.670Z,14.03
2023-08-07T00:59:46.744Z,13.99
2023-08-07T01:02:15.243Z,13.98
2023-08-07T01:04:43.680Z,13.94
2023-08-07T01:07:11.632Z,13.90
2023-08-07T01:09:39.739Z,13.89
2023-08-07T01:12:30.088Z,13.86
2023-08-07T01:15:15.796Z,13.94
2023-08-07T01:17:45.941Z,13.90
2023-08-07T01:20:14.740Z,13.92
2023-08-07T01:22:42.578Z,13.92
2023-08-07T01:25:10.459Z,13.90
2023-08-07T01:28:47.488Z,13.87
2023-08-07T01:31:20.593Z,13.93
2023-08-07T01:34:06.140Z,13.85
2023-08-07T01:36:36.198Z,13.85
2023-08-07T01:39:08.029Z,13.90
2023-08-07T01:41:39.169Z,13.82
2023-08-07T01:44:07.594Z,13.85
2023-08-07T01:46:35.391Z,13.77
2023-08-07T01:49:04.222Z,13.78
2023-08-07T01:51:32.223Z,13.74
2023-08-07T01:54:00.125Z,13.75
2023-08-07T01:56:28.117Z,13.74
2023-08-07T01:58:56.050Z,13.72
2023-08-07T02:01:24.119Z,13.72
2023-08-07T02:03:52.076Z,13.70
2023-08-07T02:06:20.226Z,13.65
2023-08-07T02:08:48.131Z,13.67
2023-08-07T02:11:17.079Z,13.67
2023-08-07T02:13:44.965Z,13.85
2023-08-07T02:16:15.817Z,13.77
2023-08-07T02:18:47.002Z,13.80
2023-08-07T02:21:19.630Z,13.74
2023-08-07T02:23:50.161Z,13.78
2023-08-07T02:26:18.818Z,13.84
2023-08-07T02:28:47.698Z,13.80
2023-08-07T02:31:15.712Z,13.88
2023-08-07T02:33:43.846Z,13.81
2023-08-07T02:36:11.690Z,13.80
2023-08-07T02:38:39.702Z,13.86
2023-08-07T02:41:07.478Z,13.92
2023-08-07T02:43:36.975Z,13.86
2023-08-07T02:46:06.792Z,13.87
2023-08-07T02:48:34.693Z,13.91
2023-08-07T02:51:02.467Z,13.85
2023-08-07T02:53:30.276Z,13.83
2023-08-07T02:55:58.167Z,13.79
2023-08-07T02:58:26.003Z,13.85
2023-08-07T03:00:54.066Z,13.79
2023-08-07T03:03:21.852Z,13.77
2023-08-07T03:05:52.345Z,13.84
2023-08-07T03:08:20.358Z,13.81
2023-08-07T03:10:58.187Z,13.79
2023-08-07T03:13:27.990Z,13.78
2023-08-07T03:16:08.864Z,13.76
2023-08-07T03:18:37.343Z,13.74
2023-08-07T03:21:05.493Z,13.77
2023-08-07T03:23:33.710Z,13.73
2023-08-07T03:26:19.035Z,13.72
2023-08-07T03:28:50.221Z,13.69
2023-08-07T03:31:18.979Z,13.77
2023-08-07T03:33:48.092Z,13.70
2023-08-07T03:36:18.005Z,13.73
2023-08-07T03:38:46.101Z,13.69
2023-08-07T03:41:14.001Z,13.62
2023-08-07T03:43:43.464Z,13.64
2023-08-07T03:46:13.143Z,13.66
2023-08-07T03:48:41.129Z,13.65
2023-08-07T03:51:10.246Z,13.66
2023-08-07T03:53:45.826Z,13.64
2023-08-07T03:56:13.708Z,13.63
2023-08-07T03:58:43.133Z,13.59
2023-08-07T04:01:12.383Z,13.60
2023-08-07T04:03:41.951Z,13.57
2023-08-07T04:06:11.926Z,13.65
2023-08-07T04:08:39.687Z,13.55
2023-08-07T04:11:09.731Z,13.48
2023-08-07T04:13:37.863Z,13.53
2023-08-07T04:16:07.361Z,13.50
2023-08-07T04:18:35.808Z,13.53
2023-08-07T04:21:04.460Z,13.52
2023-08-07T04:23:33.509Z,13.52
2023-08-07T04:26:02.165Z,13.54
2023-08-07T04:28:33.129Z,13.50
2023-08-07T04:31:01.020Z,13.50
2023-08-07T04:33:30.566Z,13.52
2023-08-07T04:35:58.660Z,13.48
2023-08-07T04:38:27.065Z,13.51
2023-08-07T04:40:55.209Z,13.58
2023-08-07T04:43:23.141Z,13.47
2023-08-07T04:45:51.294Z,13.45
2023-08-07T04:48:19.573Z,13.50
2023-08-07T04:50:47.412Z,13.42
2023-08-07T04:53:15.731Z,13.43
2023-08-07T04:55:43.696Z,13.52
2023-08-07T04:58:11.505Z,13.58
2023-08-07T05:00:39.244Z,13.53
2023-08-07T05:03:07.175Z,13.44
2023-08-07T05:05:35.156Z,13.48
2023-08-07T05:08:03.065Z,13.45
2023-08-07T05:10:31.291Z,13.50
2023-08-07T05:12:59.205Z,13.46
2023-08-07T05:15:29.846Z,13.45
2023-08-07T05:17:58.042Z,13.46
2023-08-07T05:20:26.011Z,13.45
2023-08-07T05:22:53.948Z,13.44
2023-08-07T05:25:22.358Z,13.44
2023-08-07T05:27:50.455Z,13.44
2023-08-07T05:30:18.888Z,13.55
2023-08-07T05:32:47.078Z,13.59
2023-08-07T05:35:15.628Z,13.53
2023-08-07T05:37:43.616Z,13.52
2023-08-07T05:40:13.303Z,13.54
2023-08-07T05:42:42.934Z,13.58
2023-08-07T05:45:12.362Z,13.55
2023-08-07T05:47:40.558Z,13.50
2023-08-07T05:50:09.869Z,13.52
2023-08-07T05:52:37.667Z,13.48
2023-08-07T05:55:09.330Z,13.48
2023-08-07T05:57:37.172Z,13.62
2023-08-07T06:00:07.116Z,13.53
2023-08-07T06:02:41.596Z,13.60
2023-08-07T06:05:10.800Z,13.57
2023-08-07T06:07:38.633Z,13.64
2023-08-07T06:10:08.090Z,13.68
2023-08-07T06:12:36.645Z,13.68
2023-08-07T06:15:05.359Z,13.71
2023-08-07T06:17:33.306Z,13.72
2023-08-07T06:20:01.003Z,13.75
2023-08-07T06:22:28.738Z,13.88
2023-08-07T06:24:56.445Z,13.80
2023-08-07T06:27:24.431Z,13.80
2023-08-07T06:29:52.321Z,13.87
2023-08-07T06:32:20.105Z,13.90
2023-08-07T06:34:48.080Z,13.91
2023-08-07T06:37:15.765Z,13.92
2023-08-07T06:39:43.701Z,14.01
2023-08-07T06:42:11.609Z,14.05
2023-08-07T06:44:39.512Z,14.07
2023-08-07T06:47:09.923Z,14.01
2023-08-07T06:49:38.846Z,13.97
2023-08-07T06:52:07.821Z,13.94
2023-08-07T06:54:35.892Z,14.04
2023-08-07T06:57:04.173Z,14.06
2023-08-07T06:59:31.863Z,14.07
2023-08-07T07:01:59.966Z,14.04
2023-08-07T07:04:29.260Z,14.05
2023-08-07T07:06:57.107Z,14.00
2023-08-07T07:09:24.952Z,14.08
2023-08-07T07:11:52.761Z,14.10
2023-08-07T07:14:20.699Z,14.05
2023-08-07T07:16:50.305Z,14.07
2023-08-07T07:19:18.378Z,14.11
2023-08-07T07:21:48.722Z,14.11
2023-08-07T07:24:16.643Z,14.15
2023-08-07T07:26:44.644Z,14.23
2023-08-07T07:29:12.588Z,14.19
2023-08-07T07:31:40.735Z,14.25
2023-08-07T07:34:11.293Z,14.29
2023-08-07T07:36:39.260Z,14.33
2023-08-07T07:39:08.235Z,14.34
2023-08-07T07:41:36.331Z,14.35
2023-08-07T07:44:04.270Z,14.36
2023-08-07T07:46:33.685Z,14.41
2023-08-07T07:49:04.322Z,14.45
2023-08-07T07:51:33.854Z,14.57
2023-08-07T07:56:36.288Z,14.51
2023-08-07T07:59:04.501Z,14.53
2023-08-07T08:01:32.325Z,14.52
2023-08-07T08:04:00.207Z,14.59
2023-08-07T08:06:28.617Z,14.61
2023-08-07T08:08:56.495Z,14.66
2023-08-07T08:11:25.852Z,14.60
2023-08-07T08:13:53.770Z,14.66
2023-08-07T08:16:22.450Z,14.66
2023-08-07T08:18:50.516Z,14.75
2023-08-07T08:21:18.247Z,14.77
2023-08-07T08:23:46.207Z,14.83
2023-08-07T08:26:14.003Z,14.90
2023-08-07T08:28:42.248Z,14.89
2023-08-07T08:31:10.862Z,15.01
2023-08-07T08:33:41.536Z,15.18
2023-08-07T08:36:09.398Z,15.07
2023-08-07T08:38:38.799Z,15.15
2023-08-07T08:41:11.108Z,15.28
2023-08-07T08:43:46.914Z,15.42
2023-08-07T08:46:21.557Z,15.48
2023-08-07T08:49:00.339Z,15.75
2023-08-07T08:51:28.884Z,16.11
2023-08-07T08:53:58.168Z,16.37
2023-08-07T08:56:27.112Z,16.76
2023-08-07T08:58:55.409Z,16.82
2023-08-07T09:01:26.586Z,16.67
2023-08-07T09:03:58.530Z,16.97
2023-08-07T09:06:33.874Z,16.90
2023-08-07T09:09:03.950Z,17.02
2023-08-07T09:11:34.630Z,17.50
2023-08-07T09:14:04.935Z,18.15
2023-08-07T09:16:34.919Z,18.34
2023-08-07T09:19:05.458Z,17.69
2023-08-07T09:21:35.047Z,17.60
2023-08-07T09:24:02.940Z,17.56
2023-08-07T09:26:37.063Z,17.68
2023-08-07T09:29:05.663Z,17.56
2023-08-07T09:31:34.276Z,17.82
2023-08-07T09:34:06.538Z,17.79
2023-08-07T09:36:36.123Z,17.56
2023-08-07T09:39:05.988Z,17.31
2023-08-07T09:41:35.633Z,17.12
2023-08-07T09:44:12.326Z,16.78
2023-08-07T09:46:46.002Z,16.31
2023-08-07T09:49:15.088Z,15.76
2023-08-07T09:51:48.575Z,15.51
2023-08-07T09:54:16.935Z,15.45
2023-08-07T09:56:48.839Z,15.52
2023-08-07T09:59:17.886Z,15.91
2023-08-07T10:01:47.206Z,16.02
2023-08-07T10:04:17.228Z,16.10
2023-08-07T10:06:48.182Z,16.08
2023-08-07T10:09:16.399Z,16.36
2023-08-07T10:11:45.217Z,16.48
2023-08-07T10:14:16.057Z,16.78
2023-08-07T10:16:46.810Z,16.63
2023-08-07T10:19:15.103Z,16.58
2023-08-07T10:21:46.427Z,16.51
2023-08-07T10:24:19.224Z,16.36
2023-08-07T10:26:52.262Z,16.52
2023-08-07T10:29:25.138Z,16.81
2023-08-07T10:31:57.358Z,16.67
2023-08-07T10:34:25.588Z,16.78
2023-08-07T10:36:53.521Z,16.70
2023-08-07T10:39:22.470Z,16.98
2023-08-07T10:41:56.447Z,17.29
2023-08-07T10:44:32.349Z,17.54
2023-08-07T10:47:02.630Z,17.60
2023-08-07T10:49:37.689Z,17.69
2023-08-07T10:52:16.689Z,17.63
2023-08-07T10:54:51.472Z,17.33
2023-08-07T10:57:20.798Z,17.11
2023-08-07T10:59:57.819Z,17.07
2023-08-07T11:02:34.477Z,17.15
2023-08-07T11:05:03.485Z,17.52
2023-08-07T11:07:33.029Z,17.61
2023-08-07T11:10:02.024Z,17.78
2023-08-07T11:12:31.121Z,17.65
2023-08-07T11:14:59.306Z,17.87
2023-08-07T11:17:31.354Z,17.73
2023-08-07T11:20:00.715Z,17.39
2023-08-07T11:22:28.762Z,17.19
2023-08-07T11:24:56.965Z,16.98
2023-08-07T11:27:28.513Z,16.90
2023-08-07T11:29:57.475Z,17.20
2023-08-07T11:32:25.507Z,17.29
2023-08-07T11:34:53.546Z,17.36
2023-08-07T11:37:21.767Z,17.41
2023-08-07T11:39:50.316Z,17.36
2023-08-07T11:42:24.089Z,17.93
2023-08-07T11:44:52.382Z,18.14
2023-08-07T11:47:21.349Z,18.58
2023-08-07T11:49:49.798Z,18.95
2023-08-07T11:52:18.336Z,19.14
2023-08-07T11:54:50.404Z,18.63
2023-08-07T11:57:27.581Z,18.23
2023-08-07T11:59:55.829Z,18.00
2023-08-07T12:02:27.306Z,17.92
2023-08-07T12:05:00.719Z,18.28
2023-08-07T12:07:33.652Z,18.63
2023-08-07T12:10:10.869Z,18.63
2023-08-07T12:12:40.044Z,18.62
2023-08-07T12:15:12.406Z,18.57
2023-08-07T12:17:41.197Z,18.86
2023-08-07T12:20:12.944Z,18.92
2023-08-07T12:22:40.845Z,18.75
2023-08-07T12:25:09.739Z,18.55
2023-08-07T12:27:39.321Z,18.45
2023-08-07T12:30:08.916Z,18.51
2023-08-07T12:32:36.921Z,18.56
2023-08-07T12:37:40.906Z,18.37
2023-08-07T12:42:41.413Z,18.16
2023-08-07T12:45:10.450Z,18.27
2023-08-07T12:47:38.909Z,18.13
2023-08-07T12:50:07.883Z,18.23
2023-08-07T12:52:36.730Z,18.24
2023-08-07T12:55:07.005Z,18.45
2023-08-07T12:57:34.929Z,18.42
2023-08-07T13:00:03.331Z,18.74
2023-08-07T13:02:31.660Z,19.05
2023-08-07T13:04:59.665Z,18.95
2023-08-07T13:07:27.726Z,18.87
2023-08-07T13:09:56.805Z,19.02
2023-08-07T13:12:25.156Z,18.81
2023-08-07T13:14:53.044Z,18.83
2023-08-07T13:17:20.828Z,18.98
2023-08-07T13:19:49.099Z,19.06
2023-08-07T13:22:17.669Z,19.26
2023-08-07T13:24:46.545Z,19.34
2023-08-07T13:27:16.314Z,19.20
2023-08-07T13:29:50.039Z,18.78
2023-08-07T13:32:22.522Z,18.74
2023-08-07T13:34:53.880Z,18.97
2023-08-07T13:37:25.815Z,18.74
2023-08-07T13:39:55.585Z,18.71
2023-08-07T13:42:28.748Z,18.71
2023-08-07T13:44:57.694Z,18.54
2023-08-07T13:47:27.237Z,18.70
2023-08-07T13:49:55.998Z,18.80
2023-08-07T13:52:23.860Z,18.70
2023-08-07T13:54:52.540Z,18.66
2023-08-07T13:57:20.588Z,18.83
2023-08-07T13:59:49.136Z,18.79
2023-08-07T14:02:17.156Z,18.99
2023-08-07T14:04:46.993Z,19.18
2023-08-07T14:07:14.934Z,19.61
2023-08-07T14:09:44.290Z,19.66
2023-08-07T14:12:12.320Z,19.60
2023-08-07T14:14:40.441Z,19.61
2023-08-07T14:17:08.625Z,19.68
2023-08-07T14:19:36.586Z,19.73
2023-08-07T14:22:05.189Z,19.79
2023-08-07T14:24:33.571Z,19.61
2023-08-07T14:27:01.600Z,19.49
2023-08-07T14:29:29.677Z,19.65
2023-08-07T14:31:57.630Z,20.25
2023-08-07T14:34:25.798Z,20.24
2023-08-07T14:36:55.555Z,20.27
2023-08-07T14:39:24.621Z,19.86
2023-08-07T14:41:53.588Z,19.80
2023-08-07T14:44:21.522Z,19.91
2023-08-07T14:46:50.814Z,20.31
2023-08-07T14:49:24.002Z,20.55
2023-08-07T14:51:53.464Z,20.96
2023-08-07T14:54:21.204Z,20.80
2023-08-07T14:56:49.285Z,21.38
2023-08-07T14:59:17.247Z,22.16
2023-08-07T15:01:45.180Z,22.62
2023-08-07T15:04:13.299Z,22.72
2023-08-07T15:06:48.302Z,21.41
2023-08-07T15:09:18.266Z,19.95
2023-08-07T15:11:47.614Z,19.29
2023-08-07T15:14:15.688Z,19.30
2023-08-07T15:16:43.828Z,19.27
2023-08-07T15:19:12.398Z,19.28
2023-08-07T15:21:40.337Z,19.27
2023-08-07T15:24:08.505Z,19.28
2023-08-07T15:26:36.401Z,19.80
2023-08-07T15:29:05.723Z,20.64
2023-08-07T15:31:34.153Z,20.74
2023-08-07T15:34:02.284Z,19.89
2023-08-07T15:36:30.289Z,19.33
2023-08-07T15:38:58.727Z,18.74
2023-08-07T15:41:26.636Z,19.30
2023-08-07T15:43:54.733Z,19.39
2023-08-07T15:46:22.529Z,19.26
2023-08-07T15:48:51.721Z,19.20
2023-08-07T15:51:20.925Z,19.60
2023-08-07T15:53:48.699Z,19.95
2023-08-07T15:56:16.596Z,19.98
2023-08-07T15:58:44.448Z,19.45
2023-08-07T16:01:12.422Z,18.94
2023-08-07T16:03:40.551Z,19.46
2023-08-07T16:06:10.248Z,21.34
2023-08-07T16:08:38.798Z,22.31
2023-08-07T16:11:08.004Z,21.63
2023-08-07T16:13:36.084Z,22.17
2023-08-07T16:16:04.328Z,21.57
2023-08-07T16:18:32.315Z,20.92
2023-08-07T16:21:00.144Z,20.52
2023-08-07T16:23:28.555Z,19.62
2023-08-07T16:25:56.497Z,19.23
2023-08-07T16:28:24.693Z,18.56
2023-08-07T16:30:52.568Z,18.36
2023-08-07T16:33:20.912Z,18.27
2023-08-07T16:35:48.790Z,18.24
2023-08-07T16:38:16.672Z,18.34
2023-08-07T16:40:44.414Z,18.56
2023-08-07T16:43:13.167Z,18.35
2023-08-07T16:45:41.515Z,18.25
2023-08-07T16:48:09.591Z,18.19
2023-08-07T16:50:39.491Z,17.97
2023-08-07T16:53:10.236Z,18.01
2023-08-07T16:55:38.300Z,17.99
2023-08-07T16:58:09.696Z,18.20
2023-08-07T17:00:48.787Z,18.26
2023-08-07T17:03:21.102Z,18.43
2023-08-07T17:06:03.733Z,18.46
2023-08-07T17:08:36.186Z,18.32
2023-08-07T17:11:05.958Z,18.06
2023-08-07T17:13:33.704Z,17.98
2023-08-07T17:16:01.552Z,17.79
2023-08-07T17:18:32.408Z,17.79
2023-08-07T17:21:01.624Z,17.63
2023-08-07T17:23:29.494Z,17.48
2023-08-07T17:26:02.869Z,17.40
2023-08-07T17:28:32.604Z,17.33
2023-08-07T17:31:03.518Z,17.22
2023-08-07T17:33:32.088Z,17.18
2023-08-07T17:36:00.374Z,17.08
2023-08-07T17:38:28.799Z,17.02
2023-08-07T17:40:56.517Z,17.16
2023-08-07T17:43:24.498Z,17.27
2023-08-07T17:45:52.408Z,17.45
2023-08-07T17:48:20.353Z,17.60
2023-08-07T17:50:49.521Z,17.46
2023-08-07T17:53:17.776Z,17.25
2023-08-07T17:55:45.606Z,17.00
2023-08-07T17:58:14.059Z,16.89
2023-08-07T18:00:45.089Z,16.89
2023-08-07T18:03:13.151Z,16.90
2023-08-07T18:05:41.046Z,16.83
2023-08-07T18:08:09.129Z,16.76
2023-08-07T18:10:37.405Z,16.66
2023-08-07T18:13:05.871Z,16.57
2023-08-07T18:15:33.871Z,16.46
2023-08-07T18:18:01.592Z,16.39
2023-08-07T18:20:29.601Z,16.39
2023-08-07T18:22:57.610Z,16.30
2023-08-07T18:25:25.827Z,16.23
2023-08-07T18:27:53.939Z,16.13
2023-08-07T18:30:21.710Z,16.09
2023-08-07T18:32:50.613Z,16.02
2023-08-07T18:35:19.696Z,15.91
2023-08-07T18:37:47.470Z,15.84
2023-08-07T18:40:15.797Z,15.74
2023-08-07T18:42:44.338Z,15.75
2023-08-07T18:45:12.438Z,15.66
2023-08-07T18:47:40.706Z,15.55
2023-08-07T18:50:09.884Z,15.51
2023-08-07T18:52:37.837Z,15.47
2023-08-07T18:55:06.612Z,15.38
2023-08-07T18:57:34.539Z,15.33
2023-08-07T19:00:02.427Z,15.26
2023-08-07T19:02:30.488Z,15.25
2023-08-07T19:04:58.432Z,15.31
2023-08-07T19:07:26.160Z,15.34
2023-08-07T19:09:54.202Z,15.39
2023-08-07T19:12:22.178Z,15.41
2023-08-07T19:14:50.177Z,15.32
2023-08-07T19:17:18.351Z,15.25
2023-08-07T19:19:46.369Z,15.11
2023-08-07T19:22:14.685Z,15.00
2023-08-07T19:24:42.546Z,14.96
2023-08-07T19:27:10.498Z,14.88
2023-08-07T19:29:38.176Z,14.84
2023-08-07T19:32:06.852Z,14.81
2023-08-07T19:34:35.867Z,14.74
2023-08-07T19:37:04.809Z,14.70
2023-08-07T19:39:32.693Z,14.63
2023-08-07T19:42:00.501Z,14.54
2023-08-07T19:44:28.322Z,14.49
2023-08-07T19:46:56.470Z,14.43
2023-08-07T19:49:24.541Z,14.44
2023-08-07T19:51:52.284Z,14.49
2023-08-07T19:54:20.444Z,14.48
2023-08-07T19:56:48.724Z,14.44
2023-08-07T19:59:16.506Z,14.46
2023-08-07T20:01:44.427Z,14.38
2023-08-07T20:04:14.786Z,14.29
2023-08-07T20:06:43.147Z,14.20
2023-08-07T20:09:11.101Z,14.20
2023-08-07T20:11:39.380Z,14.19
2023-08-07T20:14:07.571Z,14.20
2023-08-07T20:16:36.035Z,14.22
2023-08-07T20:19:04.116Z,14.18
2023-08-07T20:21:32.280Z,14.24
2023-08-07T20:24:00.239Z,14.20
2023-08-07T20:26:28.334Z,14.17
2023-08-07T20:28:58.657Z,14.10
2023-08-07T20:31:26.820Z,14.10
2023-08-07T20:33:59.484Z,14.15
2023-08-07T20:36:30.866Z,14.18
2023-08-07T20:38:58.928Z,14.15
2023-08-07T20:41:27.125Z,14.05
2023-08-07T20:43:55.166Z,14.09
2023-08-07T20:46:23.852Z,14.15
2023-08-07T20:48:53.528Z,14.28
2023-08-07T20:51:21.961Z,14.24
2023-08-07T20:53:49.919Z,14.19
2023-08-07T20:56:19.343Z,14.19
2023-08-07T20:58:47.259Z,14.19
2023-08-07T21:01:15.261Z,14.25
2023-08-07T21:03:43.170Z,14.32
2023-08-07T21:06:11.032Z,14.28
2023-08-07T21:08:38.925Z,14.25
2023-08-07T21:11:07.349Z,14.23
2023-08-07T21:13:39.233Z,14.12
2023-08-07T21:16:07.399Z,14.00
2023-08-07T21:18:35.420Z,13.93
2023-08-07T21:21:03.303Z,13.91
2023-08-07T21:23:32.451Z,13.86
2023-08-07T21:26:01.329Z,13.91
2023-08-07T21:28:29.071Z,13.88
2023-08-07T21:30:57.133Z,13.84
2023-08-07T21:33:25.158Z,13.83
2023-08-07T21:35:53.296Z,13.83
2023-08-07T21:38:21.364Z,13.87
2023-08-07T21:40:49.183Z,13.93
2023-08-07T21:43:17.075Z,13.97
2023-08-07T21:45:45.657Z,13.99
2023-08-07T21:48:13.494Z,14.00
2023-08-07T21:50:41.325Z,13.94
2023-08-07T21:53:09.115Z,13.86
2023-08-07T21:55:36.967Z,13.84
2023-08-07T21:58:05.420Z,13.74
2023-08-07T22:00:33.234Z,13.74
2023-08-07T22:03:01.293Z,13.75
2023-08-07T22:05:29.158Z,13.79
2023-08-07T22:07:57.216Z,13.85
2023-08-07T22:10:25.161Z,13.89
2023-08-07T22:12:52.971Z,13.92
2023-08-07T22:15:20.762Z,13.94
2023-08-07T22:17:49.077Z,14.00
2023-08-07T22:20:18.572Z,14.02
2023-08-07T22:22:46.335Z,14.07
2023-08-07T22:25:14.316Z,14.10
2023-08-07T22:27:42.511Z,14.13
2023-08-07T22:30:11.564Z,14.18
2023-08-07T22:32:39.437Z,14.19
2023-08-07T22:35:08.868Z,14.20
2023-08-07T22:37:36.815Z,14.22
2023-08-07T22:40:06.255Z,14.23
2023-08-07T22:42:33.996Z,14.23
2023-08-07T22:45:01.980Z,14.25
2023-08-07T22:47:29.949Z,14.29
2023-08-07T22:50:01.283Z,14.34
2023-08-07T22:52:30.423Z,14.38
2023-08-07T22:54:58.177Z,14.44
2023-08-07T22:57:26.441Z,14.47
2023-08-07T22:59:54.255Z,14.49
2023-08-07T23:02:22.413Z,14.55
2023-08-07T23:04:50.355Z,14.61
2023-08-07T23:07:18.317Z,14.65
2023-08-07T23:09:46.222Z,14.71
2023-08-07T23:12:15.377Z,14.76
2023-08-07T23:14:44.536Z,14.82
2023-08-07T23:17:12.507Z,14.88
2023-08-07T23:19:40.394Z,14.92
2023-08-07T23:22:08.205Z,14.90
2023-08-07T23:24:36.095Z,14.84
2023-08-07T23:27:05.024Z,14.80
2023-08-07T23:29:33.197Z,14.75
2023-08-07T23:32:01.408Z,14.79
2023-08-07T23:34:29.467Z,14.82
2023-08-07T23:36:57.527Z,14.78
2023-08-07T23:39:25.235Z,14.74
2023-08-07T23:41:53.513Z,14.75
2023-08-07T23:44:21.340Z,14.74
2023-08-07T23:46:49.364Z,14.73
2023-08-07T23:49:17.429Z,14.78
2023-08-07T23:51:45.333Z,14.80
2023-08-07T23:54:13.497Z,14.83
2023-08-07T23:56:41.490Z,14.84
2023-08-07T23:59:09.347Z,14.84
